createdAt,value
2019-05-19T00:01:27.993Z,14.8
2019-05-19T00:11:26.451Z,13.4
2019-05-19T00:21:27.086Z,13.3
2019-05-19T00:31:27.253Z,11.6
2019-05-19T00:41:27.875Z,13.8
2019-05-19T00:51:25.374Z,14.1
2019-05-19T01:01:26.310Z,15.7
2019-05-19T01:11:27.229Z,14.1
2019-05-19T01:21:28.151Z,12.5
2019-05-19T01:31:27.914Z,12.7
2019-05-19T01:41:27.730Z,14.5
2019-05-19T01:51:26.387Z,14.0
2019-05-19T02:01:27.527Z,15.4
2019-05-19T02:11:29.707Z,14.9
2019-05-19T02:21:26.618Z,15.2
2019-05-19T02:31:28.286Z,14.4
2019-05-19T02:41:26.553Z,14.5
2019-05-19T02:51:26.411Z,17.6
2019-05-19T03:01:27.043Z,15.7
2019-05-19T03:11:26.550Z,14.5
2019-05-19T03:21:26.382Z,13.5
2019-05-19T03:31:27.504Z,16.0
2019-05-19T03:41:26.658Z,14.0
2019-05-19T03:51:32.159Z,15.5
2019-05-19T04:01:26.835Z,17.0
2019-05-19T04:11:27.435Z,14.2
2019-05-19T04:21:27.252Z,17.4
2019-05-19T04:31:26.541Z,19.1
2019-05-19T04:41:27.216Z,26.9
2019-05-19T04:51:33.341Z,23.3
2019-05-19T05:01:29.302Z,23.7
2019-05-19T05:11:27.807Z,26.7
2019-05-19T05:21:29.975Z,26.0
2019-05-19T05:31:26.717Z,28.6
2019-05-19T05:41:26.347Z,26.8
2019-05-19T05:51:27.099Z,27.6
2019-05-19T06:01:25.640Z,37.9
2019-05-19T06:11:26.657Z,38.2
2019-05-19T06:21:27.614Z,42.3
2019-05-19T06:31:28.787Z,30.3
2019-05-19T06:41:26.983Z,27.3
2019-05-19T06:51:27.091Z,30.3
2019-05-19T07:01:25.770Z,32.2
2019-05-19T07:11:25.401Z,29.9
2019-05-19T07:21:28.008Z,36.2
2019-05-19T07:31:25.532Z,42.5
2019-05-19T07:41:26.566Z,35.0
2019-05-19T07:51:26.404Z,30.2
2019-05-19T08:01:27.041Z,37.9
2019-05-19T08:11:27.854Z,26.3
2019-05-19T08:21:26.007Z,24.3
2019-05-19T08:31:25.835Z,19.5
2019-05-19T08:41:27.199Z,24.6
2019-05-19T08:51:25.875Z,21.2
2019-05-19T09:01:25.678Z,17.6
2019-05-19T09:11:25.450Z,18.4
2019-05-19T09:21:25.714Z,19.1
2019-05-19T09:31:25.694Z,18.5
2019-05-19T09:41:25.712Z,15.8
2019-05-19T09:51:27.264Z,20.8
2019-05-19T10:01:26.634Z,19.4
2019-05-19T10:11:26.724Z,21.9
2019-05-19T10:21:25.948Z,16.4
2019-05-19T10:31:26.995Z,11.6
2019-05-19T10:41:26.419Z,11.7
2019-05-19T10:51:27.003Z,13.3
2019-05-19T11:01:26.546Z,9.9
2019-05-19T11:11:26.817Z,12.3
2019-05-19T11:21:26.087Z,17.3
2019-05-19T11:31:26.447Z,8.7
2019-05-19T11:41:27.116Z,7.8
2019-05-19T11:51:25.774Z,12.9
2019-05-19T12:01:28.352Z,10.4
2019-05-19T12:11:26.972Z,6.5
2019-05-19T12:21:26.671Z,9.8
2019-05-19T12:31:26.577Z,7.6
2019-05-19T12:41:26.985Z,13.3
2019-05-19T12:51:27.892Z,16.9
2019-05-19T13:01:26.211Z,9.6
2019-05-19T13:11:25.976Z,7.1
2019-05-19T13:21:26.281Z,8.7
2019-05-19T13:31:26.631Z,5.1
2019-05-19T13:41:26.520Z,8.9
2019-05-19T13:51:26.338Z,4.9
2019-05-19T14:01:29.550Z,5.3
2019-05-19T14:11:41.597Z,5.7
2019-05-19T14:21:25.792Z,6.0
2019-05-19T14:31:28.984Z,6.5
2019-05-19T14:41:34.220Z,5.4
2019-05-19T14:51:26.382Z,4.5
2019-05-19T15:01:28.279Z,6.0
2019-05-19T15:11:45.373Z,3.9
2019-05-19T15:21:25.910Z,5.9
2019-05-19T15:31:55.035Z,6.1
2019-05-19T15:41:26.030Z,7.7
2019-05-19T15:51:37.002Z,7.0
2019-05-19T16:01:26.587Z,7.8
2019-05-19T16:11:25.403Z,8.2
2019-05-19T16:21:26.314Z,7.2
2019-05-19T16:31:26.581Z,7.1
2019-05-19T16:41:26.458Z,7.8
2019-05-19T16:51:27.218Z,6.2
2019-05-19T17:01:26.578Z,4.0
2019-05-19T17:11:26.874Z,7.1
2019-05-19T17:21:25.785Z,4.2
2019-05-19T17:31:27.829Z,6.9
2019-05-19T17:41:26.731Z,5.6
2019-05-19T17:51:27.279Z,6.5
2019-05-19T18:01:26.797Z,7.9
2019-05-19T18:11:30.945Z,8.5
2019-05-19T18:21:25.895Z,8.4
2019-05-19T18:31:25.597Z,8.1
2019-05-19T18:41:26.686Z,8.5
2019-05-19T18:51:28.835Z,11.0
2019-05-19T19:01:25.815Z,8.5
2019-05-19T19:11:26.168Z,8.8
2019-05-19T19:21:26.740Z,11.1
2019-05-19T19:31:25.499Z,10.8
2019-05-19T19:41:25.949Z,16.6
2019-05-19T19:51:25.864Z,10.7
2019-05-19T20:01:27.303Z,11.8
2019-05-19T20:11:26.506Z,12.9
2019-05-19T20:21:26.676Z,11.2
2019-05-19T20:31:26.652Z,11.2
2019-05-19T20:41:26.293Z,13.7
2019-05-19T20:51:28.446Z,15.9
2019-05-19T21:01:26.545Z,14.6
2019-05-19T21:11:26.400Z,18.8
2019-05-19T21:21:27.576Z,16.1
2019-05-19T21:31:27.571Z,14.0
2019-05-19T21:41:26.507Z,16.5
2019-05-19T21:51:27.347Z,23.5
2019-05-19T22:01:26.619Z,18.9
2019-05-19T22:11:27.041Z,15.3
2019-05-19T22:21:27.463Z,15.8
2019-05-19T22:31:37.401Z,17.2
2019-05-19T22:41:27.554Z,18.3
2019-05-19T22:51:26.436Z,19.5
2019-05-19T23:01:26.112Z,29.9
2019-05-19T23:11:28.577Z,37.0
2019-05-19T23:21:26.721Z,32.0
2019-05-19T23:31:28.750Z,23.9
2019-05-19T23:41:28.165Z,34.3
2019-05-19T23:51:27.387Z,38.8
